createdAt,value
2019-05-09T00:01:04.361Z,31.9
2019-05-09T00:02:16.559Z,34.8
2019-05-09T00:03:28.758Z,34.4
2019-05-09T00:04:40.957Z,30
2019-05-09T00:05:53.157Z,31
2019-05-09T00:07:05.368Z,30
2019-05-09T00:08:17.567Z,33.1
2019-05-09T00:09:29.767Z,30.7
2019-05-09T00:10:41.964Z,32.6
2019-05-09T00:11:54.169Z,31
2019-05-09T00:13:06.369Z,30.9
2019-05-09T00:14:18.592Z,31.7
2019-05-09T00:15:30.767Z,30.6
2019-05-09T00:16:42.966Z,31.6
2019-05-09T00:17:55.180Z,33.5
2019-05-09T00:19:07.377Z,36.8
2019-05-09T00:20:19.572Z,36.3
2019-05-09T00:21:31.780Z,35.4
2019-05-09T00:22:43.977Z,33.9
2019-05-09T00:23:56.179Z,33.7
2019-05-09T00:25:08.378Z,34.6
2019-05-09T00:26:20.581Z,34.5
2019-05-09T00:27:32.784Z,32.3
2019-05-09T00:28:44.988Z,32.6
2019-05-09T00:29:57.189Z,31.1
2019-05-09T00:31:09.387Z,31.2
2019-05-09T00:32:21.781Z,29.4
2019-05-09T00:33:33.779Z,29.8
2019-05-09T00:34:45.098Z,29.2
2019-05-09T00:35:58.018Z,29.7
2019-05-09T00:37:10.409Z,30.1
2019-05-09T00:38:22.597Z,31
2019-05-09T00:39:34.788Z,32.3
2019-05-09T00:40:46.998Z,32
2019-05-09T00:41:59.019Z,31.4
2019-05-09T00:43:11.421Z,33.1
2019-05-09T00:44:23.059Z,29.8
2019-05-09T00:45:35.078Z,31.4
2019-05-09T00:46:48.006Z,31.7
2019-05-09T00:48:00.204Z,31
2019-05-09T00:49:12.397Z,30.3
2019-05-09T00:50:24.605Z,29.9
2019-05-09T00:51:36.008Z,30.2
2019-05-09T00:52:49.004Z,31
2019-05-09T00:54:01.202Z,32.1
2019-05-09T00:55:13.399Z,32.6
2019-05-09T00:56:25.612Z,30.1
2019-05-09T00:57:37.812Z,32.4
2019-05-09T00:58:50.010Z,31.1
2019-05-09T01:00:02.219Z,31.9
2019-05-09T01:01:14.416Z,31.6
2019-05-09T01:02:26.606Z,31.2
2019-05-09T01:03:38.812Z,33.2
2019-05-09T01:04:51.014Z,37.5
2019-05-09T01:06:03.221Z,34.9
2019-05-09T01:07:15.422Z,33.6
2019-05-09T01:08:27.614Z,35.4
2019-05-09T01:09:39.830Z,37.7
2019-05-09T01:10:52.022Z,35.3
2019-05-09T01:12:04.217Z,35.2
2019-05-09T01:13:16.422Z,39.2
2019-05-09T01:14:28.616Z,42.2
2019-05-09T01:15:40.830Z,42.4
2019-05-09T01:16:53.041Z,46.3
2019-05-09T01:18:05.247Z,53.3
2019-05-09T01:19:17.434Z,51.8
2019-05-09T01:20:29.630Z,48.8
2019-05-09T01:21:41.832Z,49.7
2019-05-09T01:22:54.030Z,52.9
2019-05-09T01:24:06.226Z,56.6
2019-05-09T01:25:18.430Z,54.6
2019-05-09T01:26:30.641Z,57.7
2019-05-09T01:27:42.084Z,68.9
2019-05-09T01:28:55.046Z,60.6
2019-05-09T01:30:07.242Z,58.5
2019-05-09T01:31:19.043Z,62.6
2019-05-09T01:32:31.064Z,62.7
2019-05-09T01:33:43.865Z,80.2
2019-05-09T01:34:56.038Z,66.3
2019-05-09T01:36:08.244Z,71.6
2019-05-09T01:37:20.442Z,58.5
2019-05-09T01:38:32.646Z,65.7
2019-05-09T01:39:44.850Z,61.6
2019-05-09T01:40:57.042Z,72.9
2019-05-09T01:42:09.250Z,66.7
2019-05-09T01:43:21.485Z,58.4
2019-05-09T01:44:33.703Z,76.2
2019-05-09T01:45:45.916Z,83.2
2019-05-09T01:46:58.057Z,72.9
2019-05-09T01:48:10.285Z,87.9
2019-05-09T01:49:22.462Z,79.5
2019-05-09T01:50:34.656Z,79.9
2019-05-09T01:51:46.086Z,69
2019-05-09T01:52:59.056Z,83.7
2019-05-09T01:54:11.256Z,66.9
2019-05-09T01:55:23.471Z,81.1
2019-05-09T01:56:35.669Z,65.4
2019-05-09T01:57:47.862Z,72.7
2019-05-09T01:59:00.070Z,83.7
2019-05-09T02:00:12.260Z,75.5
2019-05-09T02:01:24.047Z,97.7
2019-05-09T02:02:36.664Z,72.4
2019-05-09T02:03:49.245Z,89
2019-05-09T02:05:01.063Z,93.9
2019-05-09T02:06:13.027Z,94.6
2019-05-09T02:07:25.047Z,77
2019-05-09T02:08:37.676Z,66.1
2019-05-09T02:09:50.375Z,65.1
2019-05-09T02:11:02.087Z,58.6
2019-05-09T02:12:14.279Z,52.5
2019-05-09T02:13:26.480Z,66.3
2019-05-09T02:14:38.675Z,63.5
2019-05-09T02:15:50.887Z,63.6
2019-05-09T02:17:03.087Z,78.7
2019-05-09T02:18:15.287Z,91.7
2019-05-09T02:19:27.489Z,96.4
2019-05-09T02:20:39.748Z,65.6
2019-05-09T02:21:51.899Z,132.4
2019-05-09T02:24:16.028Z,80.2
2019-05-09T02:25:28.569Z,78
2019-05-09T02:27:52.903Z,68.5
2019-05-09T02:29:05.089Z,105.3
2019-05-09T02:30:17.293Z,131.7
2019-05-09T02:31:29.569Z,134.9
2019-05-09T02:32:41.698Z,89.4
2019-05-09T02:33:53.916Z,145.2
2019-05-09T02:35:06.106Z,78.9
2019-05-09T02:36:18.301Z,86.1
2019-05-09T02:37:30.507Z,104.1
2019-05-09T02:38:42.695Z,65.1
2019-05-09T02:39:54.903Z,86.1
2019-05-09T02:42:19.294Z,80.9
2019-05-09T02:43:31.495Z,74.7
2019-05-09T02:44:43.692Z,100.1
2019-05-09T02:45:55.898Z,92.9
2019-05-09T02:47:08.093Z,77.5
2019-05-09T02:48:20.297Z,68.9
2019-05-09T02:49:32.493Z,76
2019-05-09T02:50:44.696Z,77.1
2019-05-09T02:51:56.885Z,66.2
2019-05-09T02:54:21.292Z,100.6
2019-05-09T02:55:34.021Z,66.2
2019-05-09T02:56:45.682Z,78.8
2019-05-09T02:57:57.883Z,68
2019-05-09T02:59:10.086Z,61.6
2019-05-09T03:00:22.002Z,64.8
2019-05-09T03:01:34.478Z,73.6
2019-05-09T03:02:46.687Z,69
2019-05-09T03:03:58.088Z,65.5
2019-05-09T03:05:11.079Z,63.3
2019-05-09T03:06:23.279Z,68.7
2019-05-09T03:07:35.485Z,84.3
2019-05-09T03:08:47.674Z,89.4
2019-05-09T03:09:59.880Z,76
2019-05-09T03:11:12.073Z,76
2019-05-09T03:12:24.276Z,109.2
2019-05-09T03:13:36.473Z,99
2019-05-09T03:14:48.066Z,83.7
2019-05-09T03:16:00.873Z,70.2
2019-05-09T03:17:13.074Z,67.6
2019-05-09T03:18:25.328Z,73.6
2019-05-09T03:19:37.470Z,69.7
2019-05-09T03:20:49.679Z,82.9
2019-05-09T03:22:01.086Z,70.3
2019-05-09T03:23:14.080Z,74
2019-05-09T03:25:38.466Z,80.2
2019-05-09T03:26:50.658Z,72
2019-05-09T03:28:02.857Z,111
2019-05-09T03:29:15.057Z,102.7
2019-05-09T03:30:27.255Z,83.1
2019-05-09T03:31:39.488Z,88.7
2019-05-09T03:32:51.658Z,77
2019-05-09T03:34:03.858Z,76
2019-05-09T03:35:16.051Z,78.4
2019-05-09T03:36:28.255Z,73.2
2019-05-09T03:37:40.456Z,97.6
2019-05-09T03:38:52.697Z,68.5
2019-05-09T03:40:04.848Z,97.5
2019-05-09T03:41:17.040Z,92
2019-05-09T03:42:29.249Z,68.9
2019-05-09T03:43:41.466Z,64.4
2019-05-09T03:46:05.853Z,62
2019-05-09T03:48:30.237Z,58
2019-05-09T03:49:42.449Z,66
2019-05-09T03:50:54.644Z,63.3
2019-05-09T03:52:06.862Z,63.4
2019-05-09T03:53:19.047Z,63.2
2019-05-09T03:54:31.238Z,64.8
2019-05-09T03:55:43.436Z,72
2019-05-09T03:56:55.642Z,66.6
2019-05-09T03:58:07.829Z,70.5
2019-05-09T03:59:20.032Z,69.7
2019-05-09T04:00:32.235Z,73.3
2019-05-09T04:01:44.433Z,71.6
2019-05-09T04:02:56.632Z,75.3
2019-05-09T04:04:08.826Z,73.3
2019-05-09T04:05:21.048Z,84.3
2019-05-09T04:06:33.246Z,74.3
2019-05-09T04:07:45.438Z,79.1
2019-05-09T04:08:57.063Z,81.3
2019-05-09T04:10:09.824Z,76.1
2019-05-09T04:11:22.022Z,80.9
2019-05-09T04:12:34.222Z,74.1
2019-05-09T04:13:46.428Z,85.3
2019-05-09T04:14:58.623Z,76.6
2019-05-09T04:16:10.822Z,78
2019-05-09T04:17:23.018Z,80.9
2019-05-09T04:18:35.223Z,77.9
2019-05-09T04:19:47.042Z,82.8
2019-05-09T04:20:59.614Z,80.2
2019-05-09T04:22:11.821Z,78
2019-05-09T04:23:24.012Z,79.2
2019-05-09T04:24:36.241Z,77
2019-05-09T04:25:49.000Z,78.1
2019-05-09T04:27:00.610Z,87.9
2019-05-09T04:28:12.810Z,78.4
2019-05-09T04:29:25.012Z,80.1
2019-05-09T04:30:37.210Z,82.5
2019-05-09T04:31:49.410Z,85.2
2019-05-09T04:33:01.061Z,79.7
2019-05-09T04:34:13.080Z,86.6
2019-05-09T04:35:26.010Z,83.5
2019-05-09T04:36:38.215Z,79.6
2019-05-09T04:37:50.402Z,74.4
2019-05-09T04:40:14.804Z,82.7
2019-05-09T04:41:27.024Z,82.8
2019-05-09T04:42:39.201Z,81.3
2019-05-09T04:43:51.039Z,78.7
2019-05-09T04:45:03.600Z,75.5
2019-05-09T04:46:15.796Z,82.5
2019-05-09T04:47:27.998Z,82.4
2019-05-09T04:48:40.198Z,83.3
2019-05-09T04:49:52.395Z,85.8
2019-05-09T04:51:04.597Z,90.2
2019-05-09T04:52:16.079Z,78.5
2019-05-09T04:54:41.208Z,96.5
2019-05-09T04:55:53.424Z,92.1
2019-05-09T04:57:05.583Z,77.5
2019-05-09T04:58:17.789Z,101.3
2019-05-09T04:59:29.990Z,87.2
2019-05-09T05:00:42.200Z,100
2019-05-09T05:01:54.389Z,103
2019-05-09T05:03:06.585Z,113.9
2019-05-09T05:04:18.785Z,111.7
2019-05-09T05:05:30.987Z,95.9
2019-05-09T05:06:43.178Z,111.4
2019-05-09T05:07:55.384Z,92.4
2019-05-09T05:09:07.586Z,88.8
2019-05-09T05:10:19.840Z,92.6
2019-05-09T05:11:31.985Z,95.2
2019-05-09T05:12:44.176Z,98.5
2019-05-09T05:13:56.396Z,82.8
2019-05-09T05:15:08.065Z,88.4
2019-05-09T05:16:20.778Z,84
2019-05-09T05:17:32.977Z,97.1
2019-05-09T05:18:45.181Z,83.6
2019-05-09T05:19:57.382Z,77
2019-05-09T05:21:09.588Z,80.4
2019-05-09T05:22:21.775Z,75.5
2019-05-09T05:23:33.974Z,74.2
2019-05-09T05:24:46.176Z,74.9
2019-05-09T05:25:58.369Z,75.2
2019-05-09T05:27:10.574Z,78.5
2019-05-09T05:28:22.768Z,70.6
2019-05-09T05:29:34.962Z,69.8
2019-05-09T05:30:47.163Z,67.7
2019-05-09T05:31:59.394Z,80.9
2019-05-09T05:34:23.761Z,71.3
2019-05-09T05:35:35.956Z,75.9
2019-05-09T05:36:48.165Z,76.8
2019-05-09T05:38:00.365Z,79.7
2019-05-09T05:39:12.566Z,68.8
2019-05-09T05:41:36.959Z,67.6
2019-05-09T05:42:49.164Z,83.3
2019-05-09T05:44:01.353Z,67.7
2019-05-09T05:45:13.557Z,73.2
2019-05-09T05:46:25.752Z,68.8
2019-05-09T05:47:37.955Z,59.8
2019-05-09T05:48:50.146Z,70.7
2019-05-09T05:50:02.352Z,56.1
2019-05-09T05:51:14.560Z,61.5
2019-05-09T05:52:26.752Z,59.8
2019-05-09T05:53:38.952Z,60.4
2019-05-09T05:54:51.145Z,62.3
2019-05-09T05:56:03.350Z,55.9
2019-05-09T05:57:15.555Z,59.2
2019-05-09T05:58:27.754Z,51.6
2019-05-09T05:59:39.095Z,58.5
2019-05-09T06:00:52.208Z,61.4
2019-05-09T06:02:04.036Z,55.4
2019-05-09T06:03:17.126Z,56.2
2019-05-09T06:04:28.755Z,56.5
2019-05-09T06:05:40.941Z,54.2
2019-05-09T06:06:53.139Z,53
2019-05-09T06:08:05.340Z,55.1
2019-05-09T06:09:17.540Z,59.7
2019-05-09T06:10:29.740Z,55.1
2019-05-09T06:11:41.932Z,56.7
2019-05-09T06:12:54.014Z,53.2
2019-05-09T06:14:06.340Z,54.9
2019-05-09T06:15:18.539Z,52.7
2019-05-09T06:16:30.738Z,58.3
2019-05-09T06:17:42.930Z,47.3
2019-05-09T06:18:55.141Z,49
2019-05-09T06:20:07.351Z,48.3
2019-05-09T06:21:19.523Z,51.6
2019-05-09T06:22:31.728Z,48.3
2019-05-09T06:23:43.922Z,47.4
2019-05-09T06:24:56.128Z,49.2
2019-05-09T06:26:10.748Z,40.5
2019-05-09T06:27:20.520Z,45.6
2019-05-09T06:28:32.726Z,43.5
2019-05-09T06:29:44.928Z,39.9
2019-05-09T06:30:57.132Z,40.5
2019-05-09T06:32:09.333Z,38.7
2019-05-09T06:33:21.528Z,40.4
2019-05-09T06:34:33.718Z,39.2
2019-05-09T06:35:45.929Z,42.7
2019-05-09T06:36:58.126Z,40
2019-05-09T06:38:10.350Z,38.1
2019-05-09T06:39:22.531Z,39.9
2019-05-09T06:40:34.720Z,42.2
2019-05-09T06:41:46.930Z,39.4
2019-05-09T06:42:59.126Z,41.1
2019-05-09T06:44:11.309Z,37.8
2019-05-09T06:45:23.518Z,42.5
2019-05-09T06:46:35.708Z,39.5
2019-05-09T06:47:47.916Z,38.3
2019-05-09T06:49:00.115Z,42.5
2019-05-09T06:50:12.306Z,41.4
2019-05-09T06:51:24.530Z,41.2
2019-05-09T06:52:36.714Z,36.3
2019-05-09T06:53:48.910Z,40.4
2019-05-09T06:55:01.120Z,42.8
2019-05-09T06:56:13.334Z,41.5
2019-05-09T06:57:25.512Z,44.3
2019-05-09T06:58:37.725Z,46.5
2019-05-09T06:59:49.914Z,42.6
2019-05-09T07:01:02.142Z,40.5
2019-05-09T07:03:26.524Z,46.1
2019-05-09T07:04:38.713Z,39.5
2019-05-09T07:05:50.091Z,42.8
2019-05-09T07:07:03.143Z,41.6
2019-05-09T07:08:15.317Z,41.3
2019-05-09T07:09:27.495Z,38.8
2019-05-09T07:10:39.703Z,34.6
2019-05-09T07:11:51.902Z,37
2019-05-09T07:13:04.100Z,35.6
2019-05-09T07:14:16.305Z,36.4
2019-05-09T07:15:28.503Z,34.1
2019-05-09T07:16:40.701Z,37.2
2019-05-09T07:17:52.900Z,37.5
2019-05-09T07:19:05.093Z,34.6
2019-05-09T07:20:17.293Z,35.4
2019-05-09T07:21:29.504Z,34.7
2019-05-09T07:22:41.069Z,33.5
2019-05-09T07:23:53.913Z,33.9
2019-05-09T07:25:06.089Z,37.1
2019-05-09T07:26:18.029Z,33.2
2019-05-09T07:27:30.491Z,28
2019-05-09T07:28:42.069Z,28.8
2019-05-09T07:29:54.892Z,27
2019-05-09T07:31:07.007Z,32
2019-05-09T07:32:19.280Z,33.3
2019-05-09T07:33:31.479Z,32.7
2019-05-09T07:34:43.679Z,25.9
2019-05-09T07:35:55.880Z,28.9
2019-05-09T07:37:08.077Z,29.1
2019-05-09T07:38:20.284Z,26.6
2019-05-09T07:39:32.480Z,29.5
2019-05-09T07:40:44.682Z,27.8
2019-05-09T07:41:56.956Z,24.6
2019-05-09T07:43:09.116Z,27.7
2019-05-09T07:44:21.269Z,23.5
2019-05-09T07:45:33.483Z,24.5
2019-05-09T07:46:45.668Z,24.9
2019-05-09T07:47:57.866Z,24.1
2019-05-09T07:49:10.009Z,24.6
2019-05-09T07:50:22.555Z,25.7
2019-05-09T07:51:34.467Z,23.2
2019-05-09T07:52:46.750Z,23.2
2019-05-09T07:53:58.866Z,23.8
2019-05-09T07:55:11.060Z,24.4
2019-05-09T07:56:23.268Z,28.1
2019-05-09T07:57:35.463Z,26
2019-05-09T07:58:47.068Z,23
2019-05-09T08:02:24.286Z,22.3
2019-05-09T08:03:36.469Z,21.1
2019-05-09T08:04:48.656Z,20.1
2019-05-09T08:06:00.855Z,21
2019-05-09T08:07:13.050Z,21.4
2019-05-09T08:10:49.644Z,20.4
2019-05-09T08:12:01.903Z,21.6
2019-05-09T08:13:14.045Z,17.5
2019-05-09T08:14:26.239Z,22.1
2019-05-09T08:15:38.486Z,18.1
2019-05-09T08:16:50.064Z,20.1
2019-05-09T08:18:02.084Z,19.3
2019-05-09T08:19:15.044Z,22.7
2019-05-09T08:20:27.243Z,20.4
2019-05-09T08:25:16.037Z,21.1
2019-05-09T08:26:28.226Z,24
2019-05-09T08:27:40.043Z,20.8
2019-05-09T08:28:52.634Z,24.7
2019-05-09T08:30:04.083Z,21.9
2019-05-09T08:31:17.039Z,23
2019-05-09T08:32:29.226Z,25
2019-05-09T08:33:41.437Z,21.4
2019-05-09T08:34:53.633Z,21.8
2019-05-09T08:36:05.824Z,22.7
2019-05-09T08:37:18.032Z,25.1
2019-05-09T08:38:30.221Z,24.4
2019-05-09T08:39:42.420Z,23.9
2019-05-09T08:40:54.631Z,24.5
2019-05-09T08:42:06.814Z,23.2
2019-05-09T08:43:19.023Z,23.6
2019-05-09T08:44:31.221Z,19.7
2019-05-09T08:45:43.422Z,21.8
2019-05-09T08:46:55.623Z,24.4
2019-05-09T08:48:07.821Z,24
2019-05-09T08:49:20.013Z,25.9
2019-05-09T08:50:32.221Z,24.9
2019-05-09T08:51:44.418Z,23.1
2019-05-09T08:52:56.618Z,22.7
2019-05-09T08:54:08.822Z,22.7
2019-05-09T08:55:21.002Z,21.9
2019-05-09T08:56:33.206Z,24.5
2019-05-09T08:57:45.407Z,22.8
2019-05-09T08:58:57.857Z,24.1
2019-05-09T09:00:09.817Z,24.3
2019-05-09T09:01:22.010Z,25.6
2019-05-09T09:02:34.205Z,25.1
2019-05-09T09:03:46.407Z,24
2019-05-09T09:04:59.029Z,22.9
2019-05-09T09:06:10.807Z,23.6
2019-05-09T09:07:23.008Z,24.4
2019-05-09T09:08:35.200Z,23
2019-05-09T09:09:47.422Z,23.5
2019-05-09T09:10:59.609Z,22.6
2019-05-09T09:12:11.792Z,25.2
2019-05-09T09:13:23.009Z,27.1
2019-05-09T09:14:36.197Z,26.3
2019-05-09T09:15:48.039Z,22.3
2019-05-09T09:17:00.596Z,25.5
2019-05-09T09:18:12.798Z,24.3
2019-05-09T09:19:25.004Z,20.9
2019-05-09T09:20:37.295Z,22.1
2019-05-09T09:21:49.390Z,22.6
2019-05-09T09:23:01.604Z,24.1
2019-05-09T09:24:13.798Z,24.5
2019-05-09T09:25:25.098Z,23.8
2019-05-09T09:26:38.189Z,21.6
2019-05-09T09:27:50.388Z,21.4
2019-05-09T09:29:02.584Z,21.3
2019-05-09T09:30:14.789Z,21
2019-05-09T09:31:26.987Z,18.7
2019-05-09T09:32:39.186Z,19.8
2019-05-09T09:33:51.387Z,20.6
2019-05-09T09:35:03.579Z,19.5
2019-05-09T09:36:15.078Z,23.5
2019-05-09T09:37:28.001Z,21.8
2019-05-09T09:38:40.181Z,19.5
2019-05-09T09:39:52.375Z,21.7
2019-05-09T09:41:04.823Z,22.7
2019-05-09T09:42:16.776Z,22.1
2019-05-09T09:43:28.983Z,22.8
2019-05-09T09:44:41.600Z,20.7
2019-05-09T09:45:53.376Z,19.7
2019-05-09T09:47:05.575Z,22.1
2019-05-09T09:48:17.781Z,21.1
2019-05-09T09:49:29.974Z,20.7
2019-05-09T09:50:42.017Z,19.9
2019-05-09T09:53:06.056Z,19.6
2019-05-09T09:54:18.762Z,20
2019-05-09T09:55:30.966Z,21.1
2019-05-09T09:56:43.164Z,22.9
2019-05-09T09:57:55.716Z,22.3
2019-05-09T09:59:07.562Z,22
2019-05-09T10:00:19.765Z,20
2019-05-09T10:01:31.960Z,19.9
2019-05-09T10:02:44.168Z,23.5
2019-05-09T10:03:56.346Z,20.8
2019-05-09T10:05:08.071Z,22.9
2019-05-09T10:06:20.007Z,22.4
2019-05-09T10:07:32.944Z,23.3
2019-05-09T10:08:45.015Z,25.2
2019-05-09T10:09:57.355Z,21.4
2019-05-09T10:11:09.552Z,22.5
2019-05-09T10:12:21.758Z,20.1
2019-05-09T10:13:33.951Z,23.4
2019-05-09T10:14:46.144Z,21.1
2019-05-09T10:15:58.386Z,19.9
2019-05-09T10:17:10.555Z,19.8
2019-05-09T10:18:22.750Z,19.6
2019-05-09T10:19:34.950Z,17.7
2019-05-09T10:20:47.134Z,22.8
2019-05-09T10:21:59.341Z,20.3
2019-05-09T10:23:11.542Z,19.3
2019-05-09T10:24:23.737Z,20.2
2019-05-09T10:25:35.940Z,18.2
2019-05-09T10:26:48.134Z,20.4
2019-05-09T10:28:00.347Z,20
2019-05-09T10:29:12.540Z,19.8
2019-05-09T10:30:24.738Z,17.9
2019-05-09T10:31:36.942Z,21.5
2019-05-09T10:32:49.169Z,21.1
2019-05-09T10:34:01.328Z,19.3
2019-05-09T10:35:13.532Z,21.3
2019-05-09T10:36:25.732Z,18.9
2019-05-09T10:37:37.092Z,22
2019-05-09T10:38:50.130Z,18.7
2019-05-09T10:40:02.330Z,21.9
2019-05-09T10:41:14.532Z,21.8
2019-05-09T10:43:39.240Z,21.2
2019-05-09T10:44:51.155Z,19.8
2019-05-09T10:46:03.318Z,19.5
2019-05-09T10:47:15.514Z,22.2
2019-05-09T10:48:27.721Z,21.4
2019-05-09T10:49:20.196Z,19.7
2019-05-09T10:50:32.400Z,20.5
2019-05-09T10:51:44.601Z,20.7
2019-05-09T10:52:56.793Z,20.6
2019-05-09T10:54:09.001Z,19.9
2019-05-09T10:55:21.201Z,18.4
2019-05-09T10:56:33.397Z,18.5
2019-05-09T10:57:45.611Z,22.1
2019-05-09T10:58:57.793Z,19.7
2019-05-09T11:00:10.003Z,18.4
2019-05-09T11:01:22.207Z,21.2
2019-05-09T11:02:34.404Z,21.2
2019-05-09T11:03:46.610Z,21.3
2019-05-09T11:04:58.820Z,19.6
2019-05-09T11:06:11.008Z,19.1
2019-05-09T11:07:23.207Z,20.9
2019-05-09T11:08:35.401Z,18.6
2019-05-09T11:09:47.623Z,21
2019-05-09T11:10:59.809Z,20.3
2019-05-09T11:12:12.009Z,17.5
2019-05-09T11:13:24.207Z,17.6
2019-05-09T11:14:36.409Z,16.6
2019-05-09T11:15:48.602Z,17.1
2019-05-09T11:17:00.809Z,16.4
2019-05-09T11:18:13.016Z,21.2
2019-05-09T11:19:25.207Z,18.4
2019-05-09T11:20:37.409Z,17.8
2019-05-09T11:21:49.605Z,19.6
2019-05-09T11:23:01.808Z,19.5
2019-05-09T11:24:14.007Z,18.3
2019-05-09T11:25:26.020Z,17.8
2019-05-09T11:26:38.418Z,19.7
2019-05-09T11:27:50.617Z,18.8
2019-05-09T11:29:02.818Z,21.6
2019-05-09T11:30:15.021Z,20.7
2019-05-09T11:31:27.227Z,18.3
2019-05-09T11:32:39.417Z,19.1
2019-05-09T11:33:51.061Z,21
2019-05-09T11:35:03.825Z,20.5
2019-05-09T11:36:16.029Z,19.3
2019-05-09T11:37:28.253Z,16.5
2019-05-09T11:38:40.411Z,17.8
2019-05-09T11:39:52.687Z,18.4
2019-05-09T11:41:04.830Z,21.1
2019-05-09T11:42:17.020Z,18
2019-05-09T11:43:29.257Z,17.2
2019-05-09T11:44:41.425Z,16.5
2019-05-09T11:45:53.628Z,19
2019-05-09T11:47:05.082Z,18.1
2019-05-09T11:48:18.022Z,17.4
2019-05-09T11:49:30.226Z,18.6
2019-05-09T11:50:42.439Z,16.8
2019-05-09T11:51:54.624Z,16.7
2019-05-09T11:53:06.841Z,17
2019-05-09T11:54:19.026Z,17.2
2019-05-09T11:55:31.231Z,15
2019-05-09T11:56:43.435Z,18
2019-05-09T11:57:55.636Z,14.8
2019-05-09T11:59:07.834Z,17.1
2019-05-09T12:00:20.035Z,16.1
2019-05-09T12:01:32.246Z,12.4
2019-05-09T12:02:44.450Z,13.9
2019-05-09T12:03:56.633Z,16.9
2019-05-09T12:05:09.084Z,15.8
2019-05-09T12:06:21.034Z,14.7
2019-05-09T12:07:33.239Z,16.8
2019-05-09T12:08:45.004Z,15.8
2019-05-09T12:09:57.680Z,17.1
2019-05-09T12:11:09.939Z,15.7
2019-05-09T12:12:22.131Z,14.8
2019-05-09T12:13:34.251Z,13.7
2019-05-09T12:14:46.445Z,14.8
2019-05-09T12:15:58.687Z,16.9
2019-05-09T12:17:10.851Z,15.5
2019-05-09T12:18:23.094Z,15.7
2019-05-09T12:19:35.248Z,18
2019-05-09T12:20:47.044Z,13.4
2019-05-09T12:21:59.658Z,14.6
2019-05-09T12:23:11.843Z,13.7
2019-05-09T12:24:24.046Z,14.6
2019-05-09T12:25:36.258Z,13.2
2019-05-09T12:26:48.453Z,13.9
2019-05-09T12:28:00.647Z,13.4
2019-05-09T12:29:12.855Z,15
2019-05-09T12:30:25.069Z,14.8
2019-05-09T12:31:37.255Z,13.1
2019-05-09T12:32:49.454Z,15.5
2019-05-09T12:34:01.659Z,16.6
2019-05-09T12:35:13.866Z,13.8
2019-05-09T12:36:26.066Z,11.5
2019-05-09T12:37:38.026Z,13.9
2019-05-09T12:38:50.465Z,13.2
2019-05-09T12:40:02.665Z,15.1
2019-05-09T12:41:14.875Z,16.2
2019-05-09T12:42:27.062Z,13.4
2019-05-09T12:43:39.264Z,15.4
2019-05-09T12:44:51.462Z,13.8
2019-05-09T12:46:03.672Z,12.1
2019-05-09T12:47:15.086Z,11.1
2019-05-09T12:48:28.095Z,12.9
2019-05-09T12:49:40.272Z,12.4
2019-05-09T12:50:52.466Z,13.7
2019-05-09T12:52:04.690Z,14
2019-05-09T12:53:16.886Z,13.9
2019-05-09T12:54:29.007Z,16.2
2019-05-09T12:55:41.278Z,13.9
2019-05-09T12:56:53.478Z,14.1
2019-05-09T12:58:05.675Z,15.3
2019-05-09T12:59:17.884Z,19.1
2019-05-09T13:00:30.008Z,16.3
2019-05-09T13:02:54.499Z,12.7
2019-05-09T13:04:06.715Z,15.9
2019-05-09T13:05:18.882Z,15.9
2019-05-09T13:06:31.111Z,14.8
2019-05-09T13:07:43.280Z,15
2019-05-09T13:08:55.484Z,17.7
2019-05-09T13:10:07.676Z,15.6
2019-05-09T13:11:19.891Z,17.8
2019-05-09T13:12:32.094Z,17.3
2019-05-09T13:13:44.284Z,15.2
2019-05-09T13:14:56.527Z,18.1
2019-05-09T13:16:08.701Z,17.4
2019-05-09T13:17:20.890Z,17.8
2019-05-09T13:18:33.091Z,18.3
2019-05-09T13:19:45.028Z,18.1
2019-05-09T13:20:57.493Z,18.4
2019-05-09T13:22:09.731Z,18.3
2019-05-09T13:23:22.029Z,16.8
2019-05-09T13:24:34.099Z,16.7
2019-05-09T13:25:46.301Z,14.3
2019-05-09T13:28:10.702Z,17.6
2019-05-09T13:29:22.090Z,15.9
2019-05-09T13:30:35.101Z,20.2
2019-05-09T13:31:47.302Z,17.7
2019-05-09T13:32:59.494Z,17.2
2019-05-09T13:34:11.708Z,17.2
2019-05-09T13:35:23.910Z,15.3
2019-05-09T13:36:36.104Z,16.8
2019-05-09T13:37:48.314Z,16.9
2019-05-09T13:39:00.513Z,15.9
2019-05-09T13:40:12.707Z,15.7
2019-05-09T13:41:24.923Z,17
2019-05-09T13:42:37.104Z,17.2
2019-05-09T13:43:49.312Z,18
2019-05-09T13:45:01.512Z,18
2019-05-09T13:46:13.719Z,17.5
2019-05-09T13:47:25.927Z,16.2
2019-05-09T13:48:38.114Z,17
2019-05-09T13:49:50.312Z,17.4
2019-05-09T13:51:02.522Z,16.9
2019-05-09T13:52:14.720Z,14.4
2019-05-09T13:53:26.919Z,16.1
2019-05-09T13:54:39.122Z,16.3
2019-05-09T13:55:51.031Z,16.3
2019-05-09T13:57:03.519Z,16.2
2019-05-09T13:58:15.720Z,13.4
2019-05-09T13:59:27.926Z,10.1
2019-05-09T14:00:40.205Z,9
2019-05-09T14:01:52.330Z,8.8
2019-05-09T14:03:04.597Z,10.2
2019-05-09T14:04:16.736Z,9.6
2019-05-09T14:05:28.922Z,11.4
2019-05-09T14:06:41.147Z,14.9
2019-05-09T14:07:53.033Z,12.2
2019-05-09T14:09:05.052Z,14
2019-05-09T14:10:17.737Z,15.5
2019-05-09T14:11:29.929Z,11.2
2019-05-09T14:12:42.124Z,13.9
2019-05-09T14:13:54.330Z,11.8
2019-05-09T14:15:06.054Z,12.4
2019-05-09T14:16:18.729Z,10.8
2019-05-09T14:17:30.955Z,9.6
2019-05-09T14:18:43.141Z,8.1
2019-05-09T14:19:55.340Z,8.6
2019-05-09T14:21:07.543Z,6.7
2019-05-09T14:23:31.940Z,7.6
2019-05-09T14:24:44.134Z,7.2
2019-05-09T14:25:56.344Z,5.8
2019-05-09T14:27:08.538Z,7.1
2019-05-09T14:28:20.754Z,7.2
2019-05-09T14:29:32.951Z,5.6
2019-05-09T14:30:45.149Z,6.9
2019-05-09T14:31:57.349Z,5.4
2019-05-09T14:33:09.549Z,6
2019-05-09T14:34:21.752Z,4.4
2019-05-09T14:35:33.952Z,6.8
2019-05-09T14:36:46.157Z,7.6
2019-05-09T14:37:58.352Z,6.4
2019-05-09T14:39:10.549Z,5.1
2019-05-09T14:40:22.804Z,6.5
2019-05-09T14:41:34.960Z,6.1
2019-05-09T14:42:47.165Z,5.7
2019-05-09T14:43:59.359Z,7.1
2019-05-09T14:45:11.550Z,5.7
2019-05-09T14:46:23.758Z,5.8
2019-05-09T14:47:35.962Z,6.2
2019-05-09T14:48:48.160Z,6.2
2019-05-09T14:50:00.358Z,5.3
2019-05-09T14:51:12.566Z,10.2
2019-05-09T14:52:24.769Z,8.2
2019-05-09T14:53:36.097Z,9.1
2019-05-09T14:54:49.173Z,8.1
2019-05-09T14:56:01.366Z,12.3
2019-05-09T14:57:13.057Z,15.2
2019-05-09T14:58:25.076Z,11.9
2019-05-09T14:59:37.978Z,8.7
2019-05-09T15:00:50.169Z,10.6
2019-05-09T15:02:02.361Z,9.3
2019-05-09T15:03:14.582Z,10.2
2019-05-09T15:04:26.830Z,10.2
2019-05-09T15:05:38.979Z,8.4
2019-05-09T15:06:51.179Z,10.1
2019-05-09T15:08:03.374Z,8.4
2019-05-09T15:09:15.579Z,10
2019-05-09T15:10:27.829Z,9.5
2019-05-09T15:11:39.980Z,9.8
2019-05-09T15:12:52.181Z,10.6
2019-05-09T15:14:04.378Z,9.6
2019-05-09T15:15:16.058Z,11.5
2019-05-09T15:16:28.780Z,14.1
2019-05-09T15:17:40.993Z,13.1
2019-05-09T15:18:53.307Z,11.3
2019-05-09T15:20:05.389Z,11.7
2019-05-09T15:21:17.581Z,11.9
2019-05-09T15:22:29.079Z,10.2
2019-05-09T15:23:41.991Z,12.9
2019-05-09T15:24:57.887Z,15.7
2019-05-09T15:26:06.388Z,19.8
2019-05-09T15:27:18.589Z,17.8
2019-05-09T15:28:30.790Z,18.3
2019-05-09T15:29:42.998Z,21.1
2019-05-09T15:30:55.019Z,21.2
2019-05-09T15:32:07.040Z,21.6
2019-05-09T15:33:19.607Z,22.3
2019-05-09T15:34:31.803Z,24
2019-05-09T15:35:44.002Z,25.8
2019-05-09T15:36:56.020Z,27.6
2019-05-09T15:38:08.392Z,26.6
2019-05-09T15:39:20.605Z,27.6
2019-05-09T15:40:32.080Z,28
2019-05-09T15:41:44.992Z,29.9
2019-05-09T15:42:57.208Z,25.8
2019-05-09T15:44:09.040Z,29.5
2019-05-09T15:45:21.006Z,30.5
2019-05-09T15:46:33.809Z,28.2
2019-05-09T15:47:46.017Z,27.1
2019-05-09T15:48:58.206Z,30.2
2019-05-09T15:50:10.406Z,30.3
2019-05-09T15:51:22.624Z,26.9
2019-05-09T15:52:34.821Z,24.3
2019-05-09T15:53:47.028Z,27
2019-05-09T15:54:59.300Z,29.7
2019-05-09T15:56:11.418Z,29.2
2019-05-09T15:57:23.006Z,27.5
2019-05-09T15:58:35.820Z,25.7
2019-05-09T15:59:48.018Z,26.9
2019-05-09T16:01:00.210Z,26.1
2019-05-09T16:02:12.442Z,27.8
2019-05-09T16:03:24.619Z,32.9
2019-05-09T16:04:36.853Z,26.3
2019-05-09T16:05:49.030Z,26.9
2019-05-09T16:07:01.221Z,24.9
2019-05-09T16:08:13.464Z,25.7
2019-05-09T16:09:25.627Z,25.6
2019-05-09T16:10:37.822Z,28.6
2019-05-09T16:11:50.027Z,23.9
2019-05-09T16:13:02.224Z,24.5
2019-05-09T16:14:14.427Z,28.1
2019-05-09T16:15:26.631Z,21.6
2019-05-09T16:16:38.838Z,24.8
2019-05-09T16:17:51.029Z,21.7
2019-05-09T16:19:03.237Z,24.2
2019-05-09T16:20:15.491Z,24
2019-05-09T16:21:27.634Z,23.8
2019-05-09T16:22:39.840Z,23.4
2019-05-09T16:23:52.213Z,21.6
2019-05-09T16:25:04.248Z,24.5
2019-05-09T16:26:16.445Z,26.2
2019-05-09T16:27:28.644Z,24.2
2019-05-09T16:28:40.848Z,21.1
2019-05-09T16:29:53.130Z,24
2019-05-09T16:31:05.245Z,22.8
2019-05-09T16:32:17.448Z,23.3
2019-05-09T16:33:29.651Z,19.3
2019-05-09T16:34:41.086Z,21.1
2019-05-09T16:35:54.048Z,19.3
2019-05-09T16:37:06.255Z,16.8